Time;durP1;ratioP1;P1;durP2;ratioP2;P2;SDS_P1;SDS_P2;PMS_P1;PMS_P2;Temp;Humidity;BMP_temperature;BMP_pressure;BME280_temperature;BME280_humidity;BME280_pressure;Samples;Min_cycle;Max_cycle;Signal;HPM_P1;HPM_P2
2022/05/04 00:00:05;;;;;;;8.80;7.00;;;;;;;;;;5072403;28;20053;-84
2022/05/04 00:02:30;;;;;;;9.75;7.70;;;;;;;;;;5070947;28;20025;-82
2022/05/04 00:04:56;;;;;;;10.35;7.95;;;;;;;;;;5076587;28;20043;-83
2022/05/04 00:07:21;;;;;;;10.07;7.38;;;;;;;;;;5077664;28;20036;-83
2022/05/04 00:09:47;;;;;;;8.80;7.90;;;;;;;;;;5076820;28;20029;-83
2022/05/04 00:12:12;;;;;;;13.55;9.05;;;;;;;;;;5077687;28;20433;-81
2022/05/04 00:14:38;;;;;;;10.68;7.65;;;;;;;;;;5073035;28;20036;-83
2022/05/04 00:17:03;;;;;;;9.05;7.80;;;;;;;;;;5073245;28;20051;-82
2022/05/04 00:19:29;;;;;;;10.27;8.32;;;;;;;;;;5072927;28;20127;-83
2022/05/04 00:21:54;;;;;;;10.15;7.78;;;;;;;;;;5071186;28;20062;-82
2022/05/04 00:24:20;;;;;;;11.40;8.20;;;;;;;;;;5070740;28;20028;-81
2022/05/04 00:26:46;;;;;;;10.68;7.97;;;;;;;;;;5070327;28;20036;-83
2022/05/04 00:29:12;;;;;;;13.75;9.23;;;;;;;;;;5071498;28;20147;-82
2022/05/04 00:31:38;;;;;;;11.90;9.00;;;;;;;;;;5071407;28;20029;-82
2022/05/04 00:34:04;;;;;;;15.88;9.65;;;;;;;;;;5072128;28;20537;-84
2022/05/04 00:36:31;;;;;;;12.23;8.32;;;;;;;;;;5070126;28;20033;-83
2022/05/04 00:38:57;;;;;;;12.95;9.65;;;;;;;;;;5071460;28;20035;-83
2022/05/04 00:41:23;;;;;;;13.45;9.75;;;;;;;;;;5070182;28;20476;-83
2022/05/04 00:43:53;;;;;;;13.68;9.95;;;;;;;;;;5071184;28;20408;-84
2022/05/04 00:46:19;;;;;;;13.70;9.93;;;;;;;;;;5071232;28;20033;-82
2022/05/04 00:48:44;;;;;;;14.23;10.55;;;;;;;;;;5071615;28;20036;-82
2022/05/04 00:51:10;;;;;;;17.88;12.23;;;;;;;;;;5071711;28;20447;-82
2022/05/04 00:53:37;;;;;;;13.50;10.95;;;;;;;;;;5071982;28;20086;-83
2022/05/04 00:56:04;;;;;;;13.10;11.60;;;;;;;;;;5073615;28;20028;-83
2022/05/04 01:01:16;;;;;;;18.52;11.38;;;;;;;;;;5075530;28;20063;-83
2022/05/04 01:03:42;;;;;;;17.77;11.48;;;;;;;;;;5074728;28;20571;-82
2022/05/04 01:06:08;;;;;;;15.43;11.43;;;;;;;;;;5074196;28;20075;-82
2022/05/04 01:08:34;;;;;;;16.58;12.00;;;;;;;;;;5076103;28;20102;-83
2022/05/04 01:10:59;;;;;;;18.65;11.48;;;;;;;;;;5070369;28;20025;-83
2022/05/04 01:13:25;;;;;;;14.38;11.55;;;;;;;;;;5076294;28;20025;-83
2022/05/04 01:15:50;;;;;;;14.02;11.20;;;;;;;;;;5073159;28;20090;-83
2022/05/04 01:18:16;;;;;;;19.08;12.88;;;;;;;;;;5074494;28;20028;-82
2022/05/04 01:20:42;;;;;;;17.52;12.43;;;;;;;;;;5072334;28;20404;-84
2022/05/04 01:23:07;;;;;;;15.20;12.30;;;;;;;;;;5074780;28;20373;-84
2022/05/04 01:25:33;;;;;;;14.63;11.82;;;;;;;;;;5075117;28;20031;-85
2022/05/04 01:28:00;;;;;;;14.43;11.65;;;;;;;;;;5075536;28;20036;-83
2022/05/04 01:30:25;;;;;;;16.88;12.25;;;;;;;;;;5073686;28;20032;-82
2022/05/04 01:32:51;;;;;;;18.10;12.50;;;;;;;;;;5074370;28;20032;-83
2022/05/04 01:35:17;;;;;;;17.40;12.60;;;;;;;;;;5073655;28;20476;-84
2022/05/04 01:37:42;;;;;;;16.60;12.10;;;;;;;;;;5074925;28;20087;-83
2022/05/04 01:40:08;;;;;;;14.98;12.02;;;;;;;;;;5075662;28;20025;-81
2022/05/04 01:42:34;;;;;;;16.60;12.27;;;;;;;;;;5073864;28;20089;-83
2022/05/04 01:44:59;;;;;;;20.65;12.38;;;;;;;;;;5075521;28;20450;-83
2022/05/04 01:47:25;;;;;;;17.65;13.27;;;;;;;;;;5072911;28;20031;-83
2022/05/04 01:49:51;;;;;;;15.95;13.13;;;;;;;;;;5073985;28;20039;-82
2022/05/04 01:52:16;;;;;;;23.30;13.60;;;;;;;;;;5073238;28;20392;-83
2022/05/04 01:54:42;;;;;;;21.58;14.45;;;;;;;;;;5074521;28;20067;-83
2022/05/04 01:57:07;;;;;;;21.75;13.82;;;;;;;;;;5075488;28;20035;-83
2022/05/04 01:59:33;;;;;;;25.30;14.90;;;;;;;;;;5073388;28;20029;-83
2022/05/04 02:01:59;;;;;;;19.00;13.07;;;;;;;;;;5074882;28;20078;-83
2022/05/04 02:04:25;;;;;;;18.27;13.68;;;;;;;;;;5073339;28;20391;-84
2022/05/04 02:06:52;;;;;;;19.92;14.52;;;;;;;;;;5073343;28;20040;-82
2022/05/04 02:09:18;;;;;;;23.08;14.43;;;;;;;;;;5075474;28;20035;-82
2022/05/04 02:11:43;;;;;;;18.00;13.45;;;;;;;;;;5072771;28;20024;-83
2022/05/04 02:14:09;;;;;;;19.13;14.07;;;;;;;;;;5072861;28;20032;-82
2022/05/04 02:16:35;;;;;;;20.00;14.07;;;;;;;;;;5074135;28;20408;-83
2022/05/04 02:19:01;;;;;;;21.88;13.93;;;;;;;;;;5073173;28;20062;-82
2022/05/04 02:21:27;;;;;;;21.23;13.27;;;;;;;;;;5063891;28;20029;-82
2022/05/04 02:23:53;;;;;;;20.10;13.70;;;;;;;;;;5054809;28;20040;-82
2022/05/04 02:26:18;;;;;;;22.63;14.68;;;;;;;;;;5069794;28;20389;-82
2022/05/04 02:28:44;;;;;;;19.02;13.95;;;;;;;;;;5073991;28;20147;-85
2022/05/04 02:31:10;;;;;;;20.20;13.93;;;;;;;;;;5072519;28;20067;-84
2022/05/04 02:33:36;;;;;;;18.67;14.43;;;;;;;;;;5073310;28;20388;-83
2022/05/04 02:38:46;;;;;;;22.88;14.20;;;;;;;;;;5075107;28;20123;-82
2022/05/04 02:41:12;;;;;;;20.33;13.95;;;;;;;;;;5074155;28;20056;-84
2022/05/04 02:43:38;;;;;;;24.75;15.05;;;;;;;;;;5073618;28;20388;-82
2022/05/04 02:46:17;;;;;;;19.73;15.30;;;;;;;;;;5074425;28;20503;-84
2022/05/04 02:48:43;;;;;;;20.90;14.20;;;;;;;;;;5073742;28;20028;-83
2022/05/04 02:51:09;;;;;;;26.40;14.38;;;;;;;;;;5073361;28;20036;-83
2022/05/04 02:53:35;;;;;;;21.15;13.77;;;;;;;;;;5072251;28;20036;-83
2022/05/04 02:56:01;;;;;;;20.60;14.07;;;;;;;;;;5073775;28;20036;-83
2022/05/04 02:58:27;;;;;;;21.60;15.15;;;;;;;;;;5072514;28;20037;-83
2022/05/04 03:00:52;;;;;;;19.92;14.38;;;;;;;;;;5071810;28;20035;-83
2022/05/04 03:03:18;;;;;;;19.20;14.82;;;;;;;;;;5074464;28;20031;-83
2022/05/04 03:05:44;;;;;;;16.95;13.30;;;;;;;;;;5072126;28;20506;-84
2022/05/04 03:08:10;;;;;;;20.15;14.35;;;;;;;;;;5073687;28;20059;-83
2022/05/04 03:11:54;;;;;;;22.48;14.68;;;;;;;;;;5073968;28;20029;-82
2022/05/04 03:13:21;;;;;;;19.77;14.57;;;;;;;;;;5073864;28;20090;-84
2022/05/04 03:15:47;;;;;;;21.80;14.73;;;;;;;;;;5072509;28;20063;-84
2022/05/04 03:18:13;;;;;;;24.92;15.15;;;;;;;;;;5073791;28;20484;-83
2022/05/04 03:20:38;;;;;;;18.38;14.30;;;;;;;;;;5072338;28;20028;-83
2022/05/04 03:23:04;;;;;;;20.98;14.70;;;;;;;;;;5072618;28;20328;-83
2022/05/04 03:25:31;;;;;;;22.13;14.43;;;;;;;;;;5073842;28;20051;-83
2022/05/04 03:27:57;;;;;;;22.08;14.43;;;;;;;;;;5072479;28;20104;-83
2022/05/04 03:30:22;;;;;;;22.98;14.48;;;;;;;;;;5071826;28;20039;-82
2022/05/04 03:32:48;;;;;;;20.38;13.85;;;;;;;;;;5072458;28;20139;-83
2022/05/04 03:35:14;;;;;;;26.55;15.30;;;;;;;;;;5073256;28;20131;-83
2022/05/04 03:37:39;;;;;;;20.83;14.20;;;;;;;;;;5071998;28;20085;-84
2022/05/04 03:40:07;;;;;;;21.98;14.93;;;;;;;;;;5073008;28;20028;-83
2022/05/04 03:42:33;;;;;;;19.30;13.77;;;;;;;;;;5073273;28;20142;-83
2022/05/04 03:44:58;;;;;;;21.20;14.48;;;;;;;;;;5072007;28;20482;-83
2022/05/04 03:47:23;;;;;;;28.25;15.57;;;;;;;;;;5071437;28;20115;-84
2022/05/04 03:49:49;;;;;;;23.05;16.42;;;;;;;;;;5073123;28;20102;-83
2022/05/04 03:52:15;;;;;;;21.45;13.93;;;;;;;;;;5072349;28;20104;-84
2022/05/04 03:54:40;;;;;;;17.85;13.32;;;;;;;;;;5072316;28;20119;-86
2022/05/04 03:57:06;;;;;;;21.42;13.90;;;;;;;;;;5072015;28;20032;-84
2022/05/04 03:59:31;;;;;;;22.45;14.88;;;;;;;;;;5073928;28;20017;-84
2022/05/04 04:01:57;;;;;;;24.55;15.07;;;;;;;;;;5072813;28;20032;-84
2022/05/04 04:04:23;;;;;;;26.30;15.48;;;;;;;;;;5073250;28;20132;-84
2022/05/04 04:06:49;;;;;;;20.58;14.98;;;;;;;;;;5071669;28;20032;-84
2022/05/04 04:09:14;;;;;;;18.63;13.90;;;;;;;;;;5072117;28;20056;-82
2022/05/04 04:11:40;;;;;;;21.50;15.82;;;;;;;;;;5057829;28;20122;-83
2022/05/04 04:14:05;;;;;;;22.08;14.77;;;;;;;;;;5065512;28;20028;-84
2022/05/04 04:16:31;;;;;;;28.35;15.27;;;;;;;;;;5070947;28;20314;-83
2022/05/04 04:18:56;;;;;;;19.02;14.13;;;;;;;;;;5072283;28;20067;-83
2022/05/04 04:24:07;;;;;;;22.48;14.27;;;;;;;;;;5068492;28;20060;-83
2022/05/04 04:26:34;;;;;;;26.60;14.48;;;;;;;;;;5071676;28;20458;-84
2022/05/04 04:29:00;;;;;;;21.35;15.30;;;;;;;;;;5070399;28;20110;-84
2022/05/04 04:31:25;;;;;;;21.25;15.00;;;;;;;;;;5071133;28;20024;-83
2022/05/04 04:33:51;;;;;;;22.35;15.75;;;;;;;;;;5071984;28;20544;-84
2022/05/04 04:36:16;;;;;;;22.05;16.27;;;;;;;;;;5070201;28;20396;-79
2022/05/04 04:38:42;;;;;;;22.02;15.05;;;;;;;;;;5069805;28;20024;-83
2022/05/04 04:41:08;;;;;;;36.70;20.85;;;;;;;;;;5070712;28;20036;-82
2022/05/04 04:43:34;;;;;;;24.92;15.73;;;;;;;;;;5073167;28;20028;-84
2022/05/04 04:45:59;;;;;;;22.95;14.98;;;;;;;;;;5072498;28;20085;-83
2022/05/04 04:48:25;;;;;;;23.05;15.75;;;;;;;;;;5070629;28;20062;-85
2022/05/04 04:50:50;;;;;;;25.65;14.40;;;;;;;;;;5071679;28;20032;-82
2022/05/04 04:53:17;;;;;;;20.55;15.52;;;;;;;;;;5072467;28;20126;-83
2022/05/04 04:55:44;;;;;;;20.77;15.27;;;;;;;;;;5069896;28;20457;-83
2022/05/04 04:58:10;;;;;;;29.63;15.88;;;;;;;;;;5071926;28;20056;-81
2022/05/04 05:00:36;;;;;;;19.98;14.57;;;;;;;;;;5070314;28;20086;-83
2022/05/04 05:03:03;;;;;;;23.42;15.60;;;;;;;;;;5070153;28;20131;-82
2022/05/04 05:05:29;;;;;;;22.00;14.70;;;;;;;;;;5071597;28;20032;-83
2022/05/04 05:07:54;;;;;;;26.83;15.13;;;;;;;;;;5072250;28;20024;-84
2022/05/04 05:10:20;;;;;;;26.73;14.38;;;;;;;;;;5072374;28;20116;-82
2022/05/04 05:12:45;;;;;;;23.73;15.65;;;;;;;;;;5067136;28;20024;-82
2022/05/04 05:17:55;;;;;;;20.83;15.35;;;;;;;;;;5061269;28;20058;-80
2022/05/04 05:20:20;;;;;;;20.85;15.70;;;;;;;;;;5069896;28;20028;-82
2022/05/04 05:22:46;;;;;;;27.77;14.23;;;;;;;;;;5068946;28;20044;-81
2022/05/04 05:25:11;;;;;;;30.02;15.07;;;;;;;;;;5070587;28;20064;-82
2022/05/04 05:27:37;;;;;;;20.77;13.57;;;;;;;;;;5068713;28;20078;-82
2022/05/04 05:30:04;;;;;;;19.77;13.80;;;;;;;;;;5069765;28;20048;-82
2022/05/04 05:32:29;;;;;;;19.30;13.95;;;;;;;;;;5071146;28;20036;-84
2022/05/04 05:34:55;;;;;;;21.52;14.27;;;;;;;;;;5069811;28;20132;-82
2022/05/04 05:37:22;;;;;;;20.23;14.77;;;;;;;;;;5071704;28;20052;-82
2022/05/04 05:39:48;;;;;;;18.73;13.15;;;;;;;;;;5074109;28;20040;-85
2022/05/04 05:42:14;;;;;;;17.42;12.75;;;;;;;;;;5075160;28;20093;-85
2022/05/04 05:44:41;;;;;;;20.23;13.43;;;;;;;;;;5070751;28;20024;-82
2022/05/04 05:47:08;;;;;;;21.92;13.90;;;;;;;;;;5064639;28;20049;-84
2022/05/04 05:49:34;;;;;;;22.15;13.57;;;;;;;;;;5069512;28;20033;-81
2022/05/04 05:51:59;;;;;;;24.15;13.95;;;;;;;;;;5070913;28;20092;-82
2022/05/04 05:54:25;;;;;;;17.90;12.85;;;;;;;;;;5073109;28;20018;-83
2022/05/04 05:56:51;;;;;;;23.35;13.27;;;;;;;;;;5069927;28;20127;-81
2022/05/04 05:59:19;;;;;;;19.67;14.02;;;;;;;;;;5072018;28;20121;-81
2022/05/04 06:01:44;;;;;;;22.83;12.98;;;;;;;;;;5071866;28;20039;-81
2022/05/04 06:04:10;;;;;;;20.65;12.88;;;;;;;;;;5072772;28;20028;-80
2022/05/04 06:06:37;;;;;;;25.00;14.25;;;;;;;;;;5072694;28;20028;-82
2022/05/04 06:09:03;;;;;;;24.38;15.55;;;;;;;;;;5072766;28;20520;-83
2022/05/04 06:11:31;;;;;;;23.58;14.95;;;;;;;;;;5069140;28;20067;-79
2022/05/04 06:13:58;;;;;;;16.80;12.77;;;;;;;;;;5067969;28;20032;-79
2022/05/04 06:16:23;;;;;;;26.55;13.65;;;;;;;;;;5071051;28;20558;-78
2022/05/04 06:18:48;;;;;;;30.23;18.75;;;;;;;;;;5071940;28;20040;-78
2022/05/04 06:21:17;;;;;;;23.73;14.25;;;;;;;;;;5069339;28;20074;-80
2022/05/04 06:23:43;;;;;;;21.88;14.85;;;;;;;;;;5070287;28;20472;-76
2022/05/04 06:26:08;;;;;;;21.10;13.68;;;;;;;;;;5070593;28;20031;-80
2022/05/04 06:28:34;;;;;;;21.00;14.93;;;;;;;;;;5072213;28;20024;-78
2022/05/04 06:36:27;;;;;;;22.80;13.63;;;;;;;;;;5072151;28;20098;-82
2022/05/04 06:38:53;;;;;;;21.45;14.68;;;;;;;;;;5070742;28;20036;-79
2022/05/04 06:41:21;;;;;;;19.60;14.50;;;;;;;;;;5064808;28;20048;-80
2022/05/04 06:43:46;;;;;;;22.25;13.88;;;;;;;;;;5061009;28;20037;-80
2022/05/04 06:46:13;;;;;;;20.30;14.25;;;;;;;;;;5063569;28;20039;-79
2022/05/04 06:48:40;;;;;;;20.33;14.35;;;;;;;;;;5064290;28;20120;-80
2022/05/04 06:51:06;;;;;;;17.10;13.50;;;;;;;;;;5061906;28;20020;-82
2022/05/04 06:53:33;;;;;;;27.23;14.32;;;;;;;;;;5066198;28;20484;-81
2022/05/04 06:55:59;;;;;;;22.48;13.40;;;;;;;;;;5063267;28;20740;-82
2022/05/04 06:58:24;;;;;;;23.02;13.85;;;;;;;;;;5048795;28;20032;-80
2022/05/04 07:00:50;;;;;;;21.80;14.98;;;;;;;;;;5068588;28;20193;-83
2022/05/04 07:03:16;;;;;;;25.58;13.02;;;;;;;;;;5066528;28;20033;-79
2022/05/04 07:05:41;;;;;;;25.35;15.20;;;;;;;;;;5067721;28;20028;-80
2022/05/04 07:08:10;;;;;;;28.40;14.73;;;;;;;;;;5067714;28;20040;-80
2022/05/04 07:10:36;;;;;;;20.05;13.50;;;;;;;;;;5066083;28;20074;-78
2022/05/04 07:13:04;;;;;;;21.80;13.00;;;;;;;;;;5033764;28;20061;-78
2022/05/04 07:15:30;;;;;;;21.95;12.98;;;;;;;;;;5054897;28;20147;-77
2022/05/04 07:17:56;;;;;;;20.27;13.25;;;;;;;;;;5059522;28;20721;-79
2022/05/04 07:20:27;;;;;;;24.90;13.88;;;;;;;;;;5064894;28;20435;-78
2022/05/04 07:22:53;;;;;;;19.02;14.85;;;;;;;;;;5049426;28;20040;-85
2022/05/04 07:25:22;;;;;;;24.10;14.95;;;;;;;;;;5062502;28;20547;-83
2022/05/04 07:27:48;;;;;;;19.27;13.80;;;;;;;;;;5064201;28;20510;-84
2022/05/04 07:30:14;;;;;;;20.95;14.45;;;;;;;;;;5068831;28;20071;-82
2022/05/04 07:32:59;;;;;;;;;;;;;;;;;;;;;
2022/05/04 07:35:34;;;;;;;22.60;14.75;;;;;;;;;;5064252;28;20023;-82
2022/05/04 07:38:06;;;;;;;19.48;13.93;;;;;;;;;;5064629;28;20039;-81
2022/05/04 07:43:36;;;;;;;22.88;13.82;;;;;;;;;;5063715;28;20055;-76
2022/05/04 07:46:04;;;;;;;15.60;12.20;;;;;;;;;;5056993;28;20036;-81
2022/05/04 07:48:36;;;;;;;19.58;12.85;;;;;;;;;;5067509;28;20040;-81
2022/05/04 07:51:04;;;;;;;;;;;;;;;;;;5064515;28;20033;-79
2022/05/04 07:53:30;;;;;;;22.33;12.93;;;;;;;;;;5063009;28;20003;-77
2022/05/04 07:56:05;;;;;;;19.88;13.32;;;;;;;;;;5062382;28;20567;-81
2022/05/04 07:58:32;;;;;;;19.70;11.80;;;;;;;;;;5066363;28;20116;-80
2022/05/04 08:06:35;;;;;;;15.77;11.55;;;;;;;;;;5069880;28;20094;-79
2022/05/04 08:09:14;;;;;;;18.23;11.82;;;;;;;;;;5061938;28;20040;-81
2022/05/04 08:11:41;;;;;;;14.95;10.40;;;;;;;;;;5065520;28;20036;-79
2022/05/04 08:14:07;;;;;;;15.00;10.95;;;;;;;;;;5058261;28;20274;-80
2022/05/04 08:16:34;;;;;;;26.10;12.82;;;;;;;;;;5044833;28;20152;-80
2022/05/04 08:19:00;;;;;;;17.58;11.80;;;;;;;;;;5060625;28;20031;-79
2022/05/04 08:21:27;;;;;;;14.73;11.50;;;;;;;;;;5064974;28;20066;-78
2022/05/04 08:23:55;;;;;;;14.40;10.52;;;;;;;;;;5064051;28;20041;-79
2022/05/04 08:26:23;;;;;;;21.77;13.27;;;;;;;;;;5059629;28;20411;-82
2022/05/04 08:28:49;;;;;;;19.15;10.93;;;;;;;;;;5056936;28;20162;-80
2022/05/04 08:31:17;;;;;;;24.40;11.65;;;;;;;;;;5069117;28;20515;-81
2022/05/04 08:33:55;;;;;;;18.60;11.40;;;;;;;;;;5062911;28;20150;-78
2022/05/04 08:36:20;;;;;;;20.88;11.32;;;;;;;;;;5063614;28;20118;-79
2022/05/04 08:38:46;;;;;;;18.40;12.32;;;;;;;;;;5061041;28;20091;-79
2022/05/04 08:41:13;;;;;;;26.60;11.77;;;;;;;;;;5055431;28;21525;-78
2022/05/04 08:43:39;;;;;;;16.40;11.20;;;;;;;;;;5063044;28;20056;-78
2022/05/04 08:46:05;;;;;;;16.48;10.02;;;;;;;;;;5059995;28;20028;-81
2022/05/04 08:48:32;;;;;;;14.60;10.05;;;;;;;;;;5057454;28;20028;-78
2022/05/04 08:51:05;;;;;;;15.15;10.13;;;;;;;;;;5060759;28;20058;-79
2022/05/04 08:53:31;;;;;;;19.17;10.45;;;;;;;;;;5065950;28;20032;-80
2022/05/04 08:56:01;;;;;;;16.65;9.98;;;;;;;;;;5059961;28;20081;-80
2022/05/04 08:58:41;;;;;;;22.92;9.88;;;;;;;;;;5062054;28;20021;-79
2022/05/04 09:01:07;;;;;;;14.50;9.35;;;;;;;;;;5061108;28;20063;-79
2022/05/04 09:03:38;;;;;;;15.73;10.52;;;;;;;;;;5062083;28;20028;-82
2022/05/04 09:06:03;;;;;;;13.50;11.00;;;;;;;;;;5055932;28;20036;-81
2022/05/04 09:08:29;;;;;;;14.82;11.32;;;;;;;;;;5062105;28;20079;-80
2022/05/04 09:10:55;;;;;;;17.23;10.30;;;;;;;;;;5063870;28;20033;-83
2022/05/04 09:13:21;;;;;;;23.05;10.40;;;;;;;;;;5065010;28;20043;-81
2022/05/04 09:15:47;;;;;;;24.23;10.27;;;;;;;;;;5060883;28;20037;-83
2022/05/04 09:18:16;;;;;;;19.30;9.25;;;;;;;;;;5064464;28;20128;-82
2022/05/04 09:20:57;;;;;;;37.22;12.82;;;;;;;;;;5067651;28;20039;-81
2022/05/04 09:23:25;;;;;;;12.52;9.05;;;;;;;;;;5068100;28;20055;-82
2022/05/04 09:26:12;;;;;;;13.88;9.88;;;;;;;;;;5065665;28;20063;-79
2022/05/04 09:28:37;;;;;;;12.65;8.90;;;;;;;;;;5062049;28;20036;-80
2022/05/04 09:31:07;;;;;;;12.57;9.93;;;;;;;;;;5059560;28;20040;-78
2022/05/04 09:33:37;;;;;;;15.90;9.75;;;;;;;;;;5065822;28;20077;-82
2022/05/04 09:36:11;;;;;;;16.38;9.23;;;;;;;;;;5061978;28;20056;-83
2022/05/04 09:44:53;;;;;;;13.98;9.73;;;;;;;;;;5066337;28;20032;-78
2022/05/04 09:47:20;;;;;;;11.95;8.18;;;;;;;;;;5070248;28;20055;-81
2022/05/04 09:50:03;;;;;;;13.18;9.70;;;;;;;;;;5066181;28;20031;-79
2022/05/04 09:52:43;;;;;;;16.42;9.23;;;;;;;;;;5068562;28;20032;-81
2022/05/04 09:55:24;;;;;;;10.82;7.85;;;;;;;;;;5065445;28;20024;-80
2022/05/04 09:57:53;;;;;;;12.57;8.88;;;;;;;;;;5062970;28;20104;-77
2022/05/04 10:00:22;;;;;;;13.85;8.85;;;;;;;;;;5068647;28;20031;-80
2022/05/04 10:02:52;;;;;;;18.05;8.95;;;;;;;;;;5068115;28;20592;-80
2022/05/04 10:05:22;;;;;;;11.38;7.47;;;;;;;;;;5066402;28;20028;-82
2022/05/04 10:07:52;;;;;;;11.00;7.90;;;;;;;;;;5066884;28;20032;-82
2022/05/04 10:10:20;;;;;;;11.13;8.05;;;;;;;;;;5064240;28;20040;-81
2022/05/04 10:12:48;;;;;;;11.30;8.98;;;;;;;;;;5047075;28;20574;-83
2022/05/04 10:15:16;;;;;;;17.00;9.02;;;;;;;;;;5063810;28;20107;-82
2022/05/04 10:17:49;;;;;;;11.68;8.45;;;;;;;;;;5066850;28;20076;-82
2022/05/04 10:20:22;;;;;;;15.45;9.40;;;;;;;;;;5067828;28;20119;-83
2022/05/04 10:23:03;;;;;;;13.18;9.13;;;;;;;;;;5065359;28;20113;-81
2022/05/04 10:25:34;;;;;;;14.77;8.98;;;;;;;;;;5062234;28;20093;-81
2022/05/04 10:28:12;;;;;;;11.15;8.82;;;;;;;;;;5062438;28;20198;-80
2022/05/04 10:30:58;;;;;;;12.15;8.02;;;;;;;;;;5066676;28;20577;-81
2022/05/04 10:33:48;;;;;;;17.05;8.65;;;;;;;;;;5061496;28;20067;-79
2022/05/04 10:36:28;;;;;;;13.10;8.77;;;;;;;;;;5065881;28;21285;-80
2022/05/04 10:39:02;;;;;;;10.80;8.95;;;;;;;;;;5062323;28;20028;-80
2022/05/04 10:41:35;;;;;;;15.52;8.98;;;;;;;;;;5050451;28;20029;-78
2022/05/04 10:44:04;;;;;;;15.15;9.50;;;;;;;;;;5062636;28;20094;-79
2022/05/04 10:46:33;;;;;;;15.20;9.00;;;;;;;;;;5064539;28;20050;-80
2022/05/04 10:49:05;;;;;;;13.38;8.55;;;;;;;;;;5068582;28;20055;-81
2022/05/04 10:51:36;;;;;;;13.55;7.88;;;;;;;;;;5064937;28;20588;-82
2022/05/04 10:54:18;;;;;;;14.23;8.80;;;;;;;;;;5067959;28;20376;-80
2022/05/04 10:56:53;;;;;;;13.40;8.98;;;;;;;;;;5066113;28;20055;-79
2022/05/04 10:59:26;;;;;;;10.27;8.80;;;;;;;;;;5064931;28;20056;-83
2022/05/04 11:02:05;;;;;;;17.33;9.57;;;;;;;;;;5067512;28;20041;-84
2022/05/04 11:04:35;;;;;;;9.65;8.27;;;;;;;;;;5065323;28;20029;-80
2022/05/04 11:07:00;;;;;;;14.05;10.85;;;;;;;;;;5066053;28;20545;-81
2022/05/04 11:09:32;;;;;;;11.85;8.05;;;;;;;;;;5061066;28;20033;-79
2022/05/04 11:11:59;;;;;;;16.02;8.10;;;;;;;;;;5057427;28;20043;-79
2022/05/04 11:14:27;;;;;;;8.13;7.05;;;;;;;;;;5062519;28;20722;-79
2022/05/04 11:16:57;;;;;;;11.02;8.52;;;;;;;;;;5058166;28;20036;-77
2022/05/04 11:19:32;;;;;;;10.25;8.23;;;;;;;;;;5063819;28;20292;-80
2022/05/04 11:21:58;;;;;;;11.98;8.20;;;;;;;;;;5051149;28;20032;-80
2022/05/04 11:24:28;;;;;;;9.48;7.57;;;;;;;;;;5061235;28;20113;-79
2022/05/04 11:26:57;;;;;;;13.70;8.10;;;;;;;;;;5064293;28;20480;-82
2022/05/04 11:29:29;;;;;;;10.43;7.85;;;;;;;;;;5046173;28;20124;-80
2022/05/04 11:32:03;;;;;;;11.75;9.25;;;;;;;;;;5063554;28;20119;-78
2022/05/04 11:34:40;;;;;;;9.55;7.93;;;;;;;;;;5062689;28;20045;-77
2022/05/04 11:37:11;;;;;;;12.00;6.75;;;;;;;;;;5070494;28;20059;-79
2022/05/04 11:39:39;;;;;;;11.10;7.68;;;;;;;;;;5061083;28;20138;-77
2022/05/04 11:42:09;;;;;;;11.35;7.78;;;;;;;;;;5065600;28;20073;-80
2022/05/04 11:44:46;;;;;;;14.20;8.48;;;;;;;;;;5048088;28;20037;-79
2022/05/04 11:47:13;;;;;;;14.98;7.93;;;;;;;;;;5049901;28;20222;-79
2022/05/04 11:49:39;;;;;;;11.40;8.75;;;;;;;;;;5063362;28;20033;-79
2022/05/04 11:52:05;;;;;;;14.82;8.00;;;;;;;;;;5065504;28;20048;-80
2022/05/04 11:54:33;;;;;;;12.00;8.35;;;;;;;;;;5063474;28;20210;-82
2022/05/04 11:57:01;;;;;;;11.38;7.63;;;;;;;;;;5068410;28;20456;-82
2022/05/04 11:59:31;;;;;;;11.95;7.55;;;;;;;;;;5061154;28;20032;-80
2022/05/04 12:01:59;;;;;;;8.57;7.47;;;;;;;;;;5062610;28;20032;-80
2022/05/04 12:04:25;;;;;;;11.85;8.23;;;;;;;;;;5060416;28;20044;-80
2022/05/04 12:06:57;;;;;;;18.20;8.02;;;;;;;;;;5061045;28;20036;-80
2022/05/04 12:09:24;;;;;;;14.23;7.30;;;;;;;;;;5065661;28;20032;-83
2022/05/04 12:11:50;;;;;;;8.93;6.50;;;;;;;;;;5067221;28;20095;-81
2022/05/04 12:14:16;;;;;;;13.25;6.78;;;;;;;;;;5065514;28;20059;-85
2022/05/04 12:16:43;;;;;;;11.70;6.88;;;;;;;;;;5048205;28;20048;-79
2022/05/04 12:19:09;;;;;;;8.27;7.25;;;;;;;;;;5063419;28;20123;-82
2022/05/04 12:21:39;;;;;;;14.48;8.25;;;;;;;;;;5058638;28;20103;-79
2022/05/04 12:24:05;;;;;;;11.60;6.88;;;;;;;;;;5055313;28;20040;-79
2022/05/04 12:26:31;;;;;;;13.65;7.00;;;;;;;;;;5042064;28;20047;-80
2022/05/04 12:34:40;;;;;;;9.05;6.97;;;;;;;;;;5041034;28;20094;-79
2022/05/04 12:37:06;;;;;;;12.73;7.22;;;;;;;;;;5031625;28;20076;-79
2022/05/04 12:39:31;;;;;;;11.38;6.82;;;;;;;;;;5021397;28;20040;-78
2022/05/04 12:42:00;;;;;;;9.82;5.63;;;;;;;;;;5035421;28;20075;-80
2022/05/04 12:44:32;;;;;;;12.88;6.10;;;;;;;;;;5020892;28;20040;-79
2022/05/04 12:46:58;;;;;;;9.02;5.88;;;;;;;;;;5023271;28;20334;-80
2022/05/04 12:49:26;;;;;;;13.07;5.30;;;;;;;;;;5041140;28;20029;-82
2022/05/04 12:51:52;;;;;;;8.00;5.72;;;;;;;;;;5041190;28;20022;-81
2022/05/04 12:54:18;;;;;;;7.80;6.00;;;;;;;;;;5047042;28;20098;-80
2022/05/04 12:56:47;;;;;;;9.60;5.10;;;;;;;;;;5032926;28;20037;-83
2022/05/04 12:59:14;;;;;;;5.45;4.82;;;;;;;;;;5027547;28;20041;-78
2022/05/04 13:01:40;;;;;;;10.02;4.78;;;;;;;;;;5032662;28;20028;-79
2022/05/04 13:04:06;;;;;;;5.47;4.97;;;;;;;;;;5048205;28;20120;-81
2022/05/04 13:06:31;;;;;;;5.05;4.57;;;;;;;;;;5041603;28;20112;-80
2022/05/04 13:08:57;;;;;;;5.55;5.00;;;;;;;;;;5052377;28;20426;-83
2022/05/04 13:11:27;;;;;;;6.15;5.53;;;;;;;;;;5054560;28;20044;-81
2022/05/04 13:13:53;;;;;;;8.25;4.90;;;;;;;;;;5036663;28;20451;-81
2022/05/04 13:16:19;;;;;;;9.63;5.93;;;;;;;;;;5032275;28;20463;-79
2022/05/04 13:18:45;;;;;;;6.55;5.00;;;;;;;;;;5046781;28;20224;-77
2022/05/04 13:21:11;;;;;;;5.45;4.95;;;;;;;;;;5038662;28;20529;-80
2022/05/04 13:23:37;;;;;;;10.27;5.55;;;;;;;;;;5053251;28;20388;-80
2022/05/04 13:26:05;;;;;;;8.35;5.28;;;;;;;;;;5014454;28;20036;-80
2022/05/04 13:28:34;;;;;;;10.18;5.72;;;;;;;;;;5022181;28;20025;-83
2022/05/04 13:31:10;;;;;;;7.13;5.03;;;;;;;;;;5028574;28;20546;-80
2022/05/04 13:33:36;;;;;;;8.13;5.38;;;;;;;;;;5045886;28;20036;-81
2022/05/04 13:36:07;;;;;;;7.68;5.25;;;;;;;;;;5063740;28;20097;-82
2022/05/04 13:38:36;;;;;;;10.73;5.28;;;;;;;;;;5064247;28;20024;-80
2022/05/04 13:41:25;;;;;;;10.75;5.40;;;;;;;;;;5060855;28;20035;-81
2022/05/04 13:44:04;;;;;;;;;;;;;;;;;;;;;
2022/05/04 13:46:31;;;;;;;6.20;4.63;;;;;;;;;;5063089;28;20473;-80
2022/05/04 13:48:57;;;;;;;5.80;5.00;;;;;;;;;;5057905;28;20537;-79
2022/05/04 13:54:24;;;;;;;9.25;5.40;;;;;;;;;;5060257;28;20178;-81
2022/05/04 13:56:52;;;;;;;6.18;5.07;;;;;;;;;;5026056;28;20118;-82
2022/05/04 13:59:32;;;;;;;9.63;4.72;;;;;;;;;;5050846;28;20039;-81
2022/05/04 14:02:06;;;;;;;5.07;4.47;;;;;;;;;;5059246;28;20032;-82
2022/05/04 14:04:34;;;;;;;5.10;4.00;;;;;;;;;;5039689;28;20629;-82
2022/05/04 14:07:17;;;;;;;6.53;4.80;;;;;;;;;;5038917;28;20070;-82
2022/05/04 14:10:03;;;;;;;9.68;4.43;;;;;;;;;;5046902;28;20061;-81
2022/05/04 14:12:34;;;;;;;6.57;4.90;;;;;;;;;;5058967;28;20028;-83
2022/05/04 14:15:03;;;;;;;4.38;3.45;;;;;;;;;;5063850;28;20111;-84
2022/05/04 14:17:30;;;;;;;5.45;3.33;;;;;;;;;;5043660;28;20040;-81
2022/05/04 14:19:55;;;;;;;6.78;4.15;;;;;;;;;;5052538;28;20023;-83
2022/05/04 14:22:21;;;;;;;8.52;4.47;;;;;;;;;;5071058;28;20048;-84
2022/05/04 14:24:52;;;;;;;4.93;4.43;;;;;;;;;;5034100;28;20128;-84
2022/05/04 14:27:19;;;;;;;4.88;4.30;;;;;;;;;;5048696;28;20534;-84
2022/05/04 14:29:45;;;;;;;10.00;4.40;;;;;;;;;;5053122;28;20020;-84
2022/05/04 14:32:10;;;;;;;7.43;4.13;;;;;;;;;;5056058;28;20629;-80
2022/05/04 14:34:36;;;;;;;4.95;4.45;;;;;;;;;;5055070;28;20417;-84
2022/05/04 14:37:02;;;;;;;5.75;4.25;;;;;;;;;;5059331;28;20025;-85
2022/05/04 14:39:35;;;;;;;4.72;4.22;;;;;;;;;;5059992;28;20067;-82
2022/05/04 14:42:01;;;;;;;6.18;5.18;;;;;;;;;;5077156;28;20476;-83
2022/05/04 14:44:27;;;;;;;7.43;4.55;;;;;;;;;;5054153;28;20050;-82
2022/05/04 14:46:52;;;;;;;7.78;4.22;;;;;;;;;;5076968;28;20113;-83
2022/05/04 14:49:18;;;;;;;6.78;4.68;;;;;;;;;;5065938;28;20020;-82
2022/05/04 14:51:44;;;;;;;10.23;5.07;;;;;;;;;;5056256;28;20028;-83
2022/05/04 14:54:09;;;;;;;12.30;5.03;;;;;;;;;;5054025;28;20070;-83
2022/05/04 14:56:35;;;;;;;10.07;4.65;;;;;;;;;;5068872;28;20032;-83
2022/05/04 14:59:00;;;;;;;5.32;4.90;;;;;;;;;;5056194;28;20113;-85
2022/05/04 15:01:26;;;;;;;6.45;5.18;;;;;;;;;;5060040;28;20116;-84
2022/05/04 15:06:36;;;;;;;8.88;4.68;;;;;;;;;;5069534;28;20031;-86
2022/05/04 15:09:02;;;;;;;6.60;4.28;;;;;;;;;;5072431;28;20036;-84
2022/05/04 15:11:29;;;;;;;6.55;4.03;;;;;;;;;;5054869;28;20032;-88